createdAt,value
2016-07-04T00:00:15.973Z,16.77
2016-07-04T00:01:15.969Z,16.82
2016-07-04T00:02:15.966Z,16.86
2016-07-04T00:03:15.964Z,16.82
2016-07-04T00:04:15.963Z,16.83
2016-07-04T00:05:15.965Z,16.82
2016-07-04T00:06:15.967Z,16.91
2016-07-04T00:07:15.975Z,16.94
2016-07-04T00:08:15.967Z,16.97
2016-07-04T00:09:15.974Z,16.94
2016-07-04T00:10:15.978Z,16.97
2016-07-04T00:11:15.971Z,16.99
2016-07-04T00:12:15.977Z,16.95
2016-07-04T00:13:15.981Z,16.94
2016-07-04T00:14:15.985Z,16.95
2016-07-04T00:15:15.986Z,16.99
2016-07-04T00:16:15.990Z,16.94
2016-07-04T00:17:15.982Z,16.97
2016-07-04T00:18:16.337Z,16.97
2016-07-04T00:19:15.990Z,17.02
2016-07-04T00:20:15.983Z,17.02
2016-07-04T00:21:15.982Z,17.07
2016-07-04T00:22:16.083Z,17.12
2016-07-04T00:23:15.988Z,16.99
2016-07-04T00:24:15.989Z,17.05
2016-07-04T00:25:15.994Z,17.14
2016-07-04T00:26:15.986Z,17.16
2016-07-04T00:27:15.986Z,17.14
2016-07-04T00:28:15.993Z,17.13
2016-07-04T00:29:15.994Z,17.16
2016-07-04T00:30:16.013Z,17.13
2016-07-04T00:31:15.998Z,17.13
2016-07-04T00:32:15.994Z,17.16
2016-07-04T00:33:16.005Z,17.17
2016-07-04T00:34:15.997Z,17.22
2016-07-04T00:35:16.002Z,17.16
2016-07-04T00:36:16.001Z,17.19
2016-07-04T00:37:16.002Z,17.19
2016-07-04T00:38:16.002Z,17.23
2016-07-04T00:39:16.003Z,17.16
2016-07-04T00:40:15.378Z,17.13
2016-07-04T00:41:16.011Z,17.12
2016-07-04T00:42:16.009Z,17.13
2016-07-04T00:43:16.012Z,17.14
2016-07-04T00:44:16.013Z,17.04
2016-07-04T00:45:16.012Z,17.05
2016-07-04T00:46:16.013Z,17.07
2016-07-04T00:47:16.018Z,16.94
2016-07-04T00:48:16.013Z,16.94
2016-07-04T00:49:16.013Z,16.87
2016-07-04T00:50:16.015Z,16.86
2016-07-04T00:51:16.011Z,16.83
2016-07-04T00:52:16.016Z,16.76
2016-07-04T00:53:15.395Z,16.82
2016-07-04T00:54:16.019Z,16.72
2016-07-04T00:55:16.024Z,16.69
2016-07-04T00:56:16.027Z,16.58
2016-07-04T00:57:16.033Z,16.66
2016-07-04T00:58:16.033Z,16.58
2016-07-04T00:59:16.029Z,16.54
2016-07-04T01:00:16.028Z,16.5
2016-07-04T01:01:16.022Z,16.44
2016-07-04T01:02:16.033Z,16.41
2016-07-04T01:03:16.033Z,16.32
2016-07-04T01:04:16.039Z,16.24
2016-07-04T01:05:16.040Z,16.28
2016-07-04T01:06:16.096Z,16.13
2016-07-04T01:07:16.089Z,16.08
2016-07-04T01:08:16.269Z,16.08
2016-07-04T01:09:16.051Z,16.03
2016-07-04T01:10:16.050Z,16.02
2016-07-04T01:11:16.277Z,15.98
2016-07-04T01:12:16.161Z,15.91
2016-07-04T01:13:16.049Z,15.91
2016-07-04T01:14:16.050Z,15.99
2016-07-04T01:15:16.041Z,15.96
2016-07-04T01:16:16.042Z,15.91
2016-07-04T01:17:16.046Z,15.87
2016-07-04T01:18:16.050Z,15.83
2016-07-04T01:19:16.049Z,15.85
2016-07-04T01:20:16.046Z,15.85
2016-07-04T01:21:16.050Z,15.85
2016-07-04T01:22:16.059Z,15.84
2016-07-04T01:23:16.057Z,15.75
2016-07-04T01:24:16.050Z,15.76
2016-07-04T01:25:16.063Z,15.75
2016-07-04T01:26:16.058Z,15.73
2016-07-04T01:27:16.062Z,15.78
2016-07-04T01:28:16.063Z,15.75
2016-07-04T01:29:16.062Z,15.73
2016-07-04T01:30:16.070Z,15.75
2016-07-04T01:31:16.062Z,15.72
2016-07-04T01:32:16.069Z,15.62
2016-07-04T01:33:16.069Z,15.66
2016-07-04T01:34:16.066Z,15.75
2016-07-04T01:35:16.079Z,15.69
2016-07-04T01:36:16.070Z,15.62
2016-07-04T01:37:16.070Z,15.6
2016-07-04T01:38:16.070Z,15.65
2016-07-04T01:39:16.068Z,15.62
2016-07-04T01:40:16.064Z,15.52
2016-07-04T01:41:16.067Z,15.51
2016-07-04T01:42:16.065Z,15.45
2016-07-04T01:43:16.069Z,15.36
2016-07-04T01:44:16.083Z,15.35
2016-07-04T01:45:16.075Z,15.33
2016-07-04T01:46:16.071Z,15.23
2016-07-04T01:47:16.073Z,15.1
2016-07-04T01:48:16.073Z,15.11
2016-07-04T01:49:16.075Z,15.04
2016-07-04T01:50:16.077Z,15.1
2016-07-04T01:51:16.073Z,14.99
2016-07-04T01:52:16.083Z,14.97
2016-07-04T01:53:16.084Z,14.81
2016-07-04T01:54:16.073Z,14.78
2016-07-04T01:55:16.077Z,14.73
2016-07-04T01:56:16.080Z,14.74
2016-07-04T01:57:16.083Z,14.66
2016-07-04T01:58:16.083Z,14.55
2016-07-04T01:59:16.073Z,14.61
2016-07-04T02:00:16.083Z,14.56
2016-07-04T02:01:16.082Z,14.56
2016-07-04T02:02:16.086Z,14.53
2016-07-04T02:03:16.081Z,14.41
2016-07-04T02:04:16.085Z,14.36
2016-07-04T02:05:16.092Z,14.4
2016-07-04T02:06:16.092Z,14.4
2016-07-04T02:07:16.088Z,14.38
2016-07-04T02:08:16.091Z,14.28
2016-07-04T02:09:16.333Z,14.26
2016-07-04T02:10:16.152Z,14.3
2016-07-04T02:11:16.099Z,14.31
2016-07-04T02:12:16.157Z,14.28
2016-07-04T02:13:16.196Z,14.2
2016-07-04T02:14:16.199Z,14.2
2016-07-04T02:15:16.243Z,14.15
2016-07-04T02:16:16.258Z,14.13
2016-07-04T02:17:16.113Z,14.13
2016-07-04T02:18:16.204Z,14.13
2016-07-04T02:19:16.098Z,14.13
2016-07-04T02:20:16.109Z,14.12
2016-07-04T02:21:16.112Z,14.07
2016-07-04T02:22:16.108Z,14.07
2016-07-04T02:23:16.108Z,14.04
2016-07-04T02:24:16.105Z,14.01
2016-07-04T02:25:16.108Z,13.98
2016-07-04T02:26:16.112Z,13.95
2016-07-04T02:27:16.116Z,13.95
2016-07-04T02:28:16.121Z,13.91
2016-07-04T02:29:16.112Z,13.93
2016-07-04T02:30:16.124Z,13.82
2016-07-04T02:31:16.120Z,13.85
2016-07-04T02:32:16.116Z,13.85
2016-07-04T02:33:16.115Z,13.78
2016-07-04T02:34:16.120Z,13.73
2016-07-04T02:35:16.124Z,13.73
2016-07-04T02:36:16.124Z,13.75
2016-07-04T02:37:16.119Z,13.78
2016-07-04T02:38:16.120Z,13.67
2016-07-04T02:39:16.123Z,13.73
2016-07-04T02:40:16.123Z,13.62
2016-07-04T02:41:16.119Z,13.65
2016-07-04T02:42:16.120Z,13.62
2016-07-04T02:43:16.118Z,13.65
2016-07-04T02:44:16.124Z,13.67
2016-07-04T02:45:16.125Z,13.65
2016-07-04T02:46:16.124Z,13.61
2016-07-04T02:47:16.123Z,13.57
2016-07-04T02:48:16.117Z,13.61
2016-07-04T02:49:16.127Z,13.55
2016-07-04T02:50:16.123Z,13.52
2016-07-04T02:51:16.127Z,13.54
2016-07-04T02:52:16.140Z,13.54
2016-07-04T02:53:16.135Z,13.47
2016-07-04T02:54:16.136Z,13.46
2016-07-04T02:55:16.131Z,13.52
2016-07-04T02:56:16.132Z,13.42
2016-07-04T02:57:16.135Z,13.47
2016-07-04T02:58:16.133Z,13.46
2016-07-04T02:59:16.131Z,13.39
2016-07-04T03:00:16.132Z,13.47
2016-07-04T03:01:16.135Z,13.43
2016-07-04T03:02:16.134Z,13.46
2016-07-04T03:03:16.127Z,13.46
2016-07-04T03:04:15.510Z,13.52
2016-07-04T03:05:16.135Z,13.58
2016-07-04T03:06:16.137Z,13.57
2016-07-04T03:07:16.146Z,13.62
2016-07-04T03:08:16.147Z,13.64
2016-07-04T03:09:16.137Z,13.65
2016-07-04T03:10:16.145Z,13.64
2016-07-04T03:11:16.161Z,13.73
2016-07-04T03:12:16.149Z,13.7
2016-07-04T03:13:16.149Z,13.76
2016-07-04T03:14:16.145Z,13.82
2016-07-04T03:15:16.137Z,13.89
2016-07-04T03:16:16.139Z,13.82
2016-07-04T03:17:16.140Z,13.83
2016-07-04T03:18:16.142Z,13.98
2016-07-04T03:19:16.144Z,13.98
2016-07-04T03:20:16.151Z,13.98
2016-07-04T03:21:16.149Z,14.05
2016-07-04T03:22:16.149Z,14.12
2016-07-04T03:23:16.146Z,14.11
2016-07-04T03:24:16.147Z,14.11
2016-07-04T03:25:16.144Z,14.16
2016-07-04T03:26:16.149Z,14.16
2016-07-04T03:27:16.159Z,14.12
2016-07-04T03:28:16.159Z,14.15
2016-07-04T03:29:16.158Z,14.18
2016-07-04T03:30:16.159Z,14.19
2016-07-04T03:31:16.160Z,14.2
2016-07-04T03:32:16.152Z,14.26
2016-07-04T03:33:15.530Z,14.22
2016-07-04T03:34:16.155Z,14.36
2016-07-04T03:35:16.158Z,14.36
2016-07-04T03:36:16.159Z,14.36
2016-07-04T03:37:16.154Z,14.36
2016-07-04T03:38:16.155Z,14.26
2016-07-04T03:39:16.166Z,14.43
2016-07-04T03:40:16.162Z,14.26
2016-07-04T03:41:16.156Z,14.38
2016-07-04T03:42:16.162Z,14.37
2016-07-04T03:43:16.154Z,14.43
2016-07-04T03:44:16.156Z,14.38
2016-07-04T03:45:16.158Z,14.44
2016-07-04T03:46:16.158Z,14.51
2016-07-04T03:47:16.158Z,14.45
2016-07-04T03:48:16.162Z,14.48
2016-07-04T03:49:16.173Z,14.59
2016-07-04T03:50:16.163Z,14.55
2016-07-04T03:51:16.170Z,14.53
2016-07-04T03:52:16.166Z,14.56
2016-07-04T03:53:16.170Z,14.62
2016-07-04T03:54:16.170Z,14.58
2016-07-04T03:55:16.170Z,14.68
2016-07-04T03:56:16.163Z,14.73
2016-07-04T03:57:15.538Z,14.71
2016-07-04T03:58:16.177Z,14.82
2016-07-04T03:59:16.173Z,14.82
2016-07-04T04:00:16.174Z,14.89
2016-07-04T04:01:16.177Z,14.87
2016-07-04T04:02:16.177Z,14.86
2016-07-04T04:03:16.170Z,14.82
2016-07-04T04:04:16.181Z,14.93
2016-07-04T04:05:16.177Z,14.89
2016-07-04T04:06:16.181Z,15
2016-07-04T04:07:15.564Z,14.92
2016-07-04T04:08:16.193Z,14.96
2016-07-04T04:09:16.180Z,14.93
2016-07-04T04:10:16.177Z,14.94
2016-07-04T04:11:16.172Z,15.02
2016-07-04T04:12:16.177Z,14.94
2016-07-04T04:13:16.185Z,14.96
2016-07-04T04:14:16.179Z,15.07
2016-07-04T04:15:16.187Z,15.17
2016-07-04T04:16:16.183Z,15.11
2016-07-04T04:17:16.188Z,15.08
2016-07-04T04:18:16.289Z,15.07
2016-07-04T04:19:16.189Z,15.18
2016-07-04T04:20:15.566Z,15.19
2016-07-04T04:21:16.194Z,15.29
2016-07-04T04:22:16.243Z,15.32
2016-07-04T04:23:16.191Z,15.41
2016-07-04T04:24:15.568Z,15.45
2016-07-04T04:25:16.191Z,15.33
2016-07-04T04:26:16.187Z,15.43
2016-07-04T04:27:16.200Z,15.47
2016-07-04T04:28:16.196Z,15.45
2016-07-04T04:29:16.192Z,15.48
2016-07-04T04:30:16.200Z,15.47
2016-07-04T04:31:16.192Z,15.52
2016-07-04T04:32:16.192Z,15.54
2016-07-04T04:33:16.190Z,15.55
2016-07-04T04:34:16.201Z,15.54
2016-07-04T04:35:16.196Z,15.57
2016-07-04T04:36:16.201Z,15.63
2016-07-04T04:37:16.197Z,15.62
2016-07-04T04:38:16.202Z,15.67
2016-07-04T04:39:16.203Z,15.63
2016-07-04T04:40:16.202Z,15.63
2016-07-04T04:41:16.201Z,15.72
2016-07-04T04:42:16.202Z,15.76
2016-07-04T04:43:16.215Z,15.81
2016-07-04T04:44:16.204Z,15.84
2016-07-04T04:45:16.200Z,15.85
2016-07-04T04:46:15.576Z,15.78
2016-07-04T04:47:16.211Z,15.88
2016-07-04T04:48:16.209Z,15.84
2016-07-04T04:49:16.211Z,15.88
2016-07-04T04:50:16.208Z,15.99
2016-07-04T04:51:16.216Z,16.06
2016-07-04T04:52:16.207Z,16.1
2016-07-04T04:53:16.220Z,16.16
2016-07-04T04:54:16.223Z,16.26
2016-07-04T04:55:16.220Z,16.24
2016-07-04T04:56:16.219Z,16.21
2016-07-04T04:57:16.219Z,16.37
2016-07-04T04:58:16.220Z,16.36
2016-07-04T04:59:16.219Z,16.43
2016-07-04T05:00:16.223Z,16.43
2016-07-04T05:01:16.223Z,16.5
2016-07-04T05:02:16.221Z,16.59
2016-07-04T05:03:16.224Z,16.57
2016-07-04T05:04:16.224Z,16.55
2016-07-04T05:05:16.223Z,16.51
2016-07-04T05:06:16.224Z,16.62
2016-07-04T05:07:16.217Z,16.69
2016-07-04T05:08:16.229Z,16.72
2016-07-04T05:09:16.218Z,16.74
2016-07-04T05:10:16.229Z,16.8
2016-07-04T05:11:16.228Z,16.92
2016-07-04T05:12:16.229Z,16.86
2016-07-04T05:13:16.228Z,16.94
2016-07-04T05:14:16.233Z,16.95
2016-07-04T05:15:16.233Z,16.99
2016-07-04T05:16:16.229Z,17.16
2016-07-04T05:17:16.229Z,17.3
2016-07-04T05:18:16.229Z,17.24
2016-07-04T05:19:16.233Z,17.31
2016-07-04T05:20:16.237Z,17.39
2016-07-04T05:21:16.237Z,17.46
2016-07-04T05:22:16.232Z,17.59
2016-07-04T05:23:16.232Z,17.63
2016-07-04T05:24:16.228Z,17.73
2016-07-04T05:25:16.230Z,17.8
2016-07-04T05:26:16.238Z,17.87
2016-07-04T05:27:16.234Z,17.97
2016-07-04T05:28:16.236Z,18.02
2016-07-04T05:29:16.237Z,18.05
2016-07-04T05:30:16.243Z,18.12
2016-07-04T05:31:16.241Z,18.15
2016-07-04T05:32:16.237Z,18.26
2016-07-04T05:33:16.241Z,18.23
2016-07-04T05:34:15.617Z,18.36
2016-07-04T05:35:16.242Z,18.36
2016-07-04T05:36:16.863Z,18.42
2016-07-04T05:37:47.706Z,18.48
2016-07-04T05:38:29.296Z,18.7
2016-07-04T05:39:16.453Z,18.66
2016-07-04T05:40:16.240Z,18.82
2016-07-04T05:41:16.240Z,18.89
2016-07-04T05:42:16.243Z,18.96
2016-07-04T05:43:15.615Z,19.15
2016-07-04T05:44:15.635Z,19.2
2016-07-04T05:45:16.240Z,19.23
2016-07-04T05:46:15.609Z,19.35
2016-07-04T05:47:15.619Z,19.38
2016-07-04T05:48:16.237Z,19.45
2016-07-04T05:49:15.861Z,19.53
2016-07-04T05:50:16.240Z,19.7
2016-07-04T05:51:16.245Z,19.81
2016-07-04T05:52:16.686Z,19.87
2016-07-04T05:53:16.344Z,19.92
2016-07-04T05:54:15.616Z,20
2016-07-04T05:55:15.627Z,20.11
2016-07-04T05:56:16.252Z,20.18
2016-07-04T05:57:16.252Z,20.29
2016-07-04T05:58:15.623Z,20.52
2016-07-04T05:59:15.633Z,20.68
2016-07-04T06:00:16.254Z,20.78
2016-07-04T06:01:16.852Z,20.88
2016-07-04T06:02:16.266Z,21.17
2016-07-04T06:03:15.630Z,21.38
2016-07-04T06:04:16.255Z,21.53
2016-07-04T06:05:15.631Z,21.6
2016-07-04T06:06:16.260Z,21.75
2016-07-04T06:07:16.281Z,21.96
2016-07-04T06:08:16.260Z,22.07
2016-07-04T06:09:15.005Z,22.08
2016-07-04T06:10:15.632Z,22.19
2016-07-04T06:11:16.520Z,22.37
2016-07-04T06:12:16.275Z,22.46
2016-07-04T06:13:15.627Z,22.71
2016-07-04T06:14:16.260Z,22.77
2016-07-04T06:15:15.025Z,22.84
2016-07-04T06:16:15.639Z,22.96
2016-07-04T06:17:16.269Z,23.16
2016-07-04T06:18:16.311Z,23.42
2016-07-04T06:19:15.639Z,23.54
2016-07-04T06:20:16.268Z,23.71
2016-07-04T06:21:16.271Z,23.89
2016-07-04T06:22:15.034Z,23.94
2016-07-04T06:23:16.282Z,24.11
2016-07-04T06:24:16.278Z,24.24
2016-07-04T06:25:15.650Z,24.46
2016-07-04T06:26:16.282Z,24.68
2016-07-04T06:27:15.034Z,24.93
2016-07-04T06:28:16.287Z,25.25
2016-07-04T06:29:15.664Z,25.54
2016-07-04T06:30:15.035Z,26.03
2016-07-04T06:31:15.661Z,26.6
2016-07-04T06:32:16.289Z,27.23
2016-07-04T06:33:16.285Z,27.81
2016-07-04T06:34:16.285Z,28.12
2016-07-04T06:35:16.296Z,28.49
2016-07-04T06:36:15.036Z,28.74
2016-07-04T06:37:16.428Z,29.18
2016-07-04T06:38:15.686Z,29.52
2016-07-04T06:39:16.287Z,29.81
2016-07-04T06:40:15.672Z,29.99
2016-07-04T06:41:16.297Z,29.98
2016-07-04T06:42:16.291Z,30.06
2016-07-04T06:43:16.499Z,30.1
2016-07-04T06:44:16.303Z,30.13
2016-07-04T06:45:15.697Z,30.06
2016-07-04T06:46:15.676Z,30.11
2016-07-04T06:47:16.331Z,30.21
2016-07-04T06:48:16.287Z,30.27
2016-07-04T06:49:16.568Z,30.43
2016-07-04T06:50:16.292Z,30.43
2016-07-04T06:51:15.688Z,30.49
2016-07-04T06:52:16.295Z,30.36
2016-07-04T06:53:18.669Z,30.4
2016-07-04T06:54:15.674Z,30.39
2016-07-04T06:55:15.683Z,30.63
2016-07-04T06:56:15.679Z,30.7
2016-07-04T06:57:15.684Z,30.96
2016-07-04T06:58:15.682Z,31.51
2016-07-04T06:59:16.382Z,31.9
2016-07-04T07:00:16.314Z,32.38
2016-07-04T07:01:16.315Z,33.09
2016-07-04T07:02:15.690Z,33.89
2016-07-04T07:03:15.700Z,34.6
2016-07-04T07:04:15.712Z,35.32
2016-07-04T07:05:16.319Z,36.14
2016-07-04T07:06:16.340Z,36.78
2016-07-04T07:07:15.063Z,37.36
2016-07-04T07:08:15.688Z,37.97
2016-07-04T07:09:15.691Z,38.44
2016-07-04T07:10:16.319Z,38.95
2016-07-04T07:11:16.317Z,39.23
2016-07-04T07:12:16.324Z,39.54
2016-07-04T07:13:15.696Z,39.68
2016-07-04T07:14:16.320Z,39.85
2016-07-04T07:15:16.325Z,39.88
2016-07-04T07:16:16.327Z,39.94
2016-07-04T07:17:16.331Z,40.05
2016-07-04T07:18:16.374Z,40.12
2016-07-04T07:19:15.710Z,40.13
2016-07-04T07:20:16.339Z,40.22
2016-07-04T07:21:15.706Z,40.29
2016-07-04T07:22:15.748Z,40.29
2016-07-04T07:23:15.767Z,40.19
2016-07-04T07:24:16.351Z,40.08
2016-07-04T07:25:15.715Z,40.04
2016-07-04T07:26:16.404Z,39.97
2016-07-04T07:27:16.367Z,39.82
2016-07-04T07:28:15.095Z,39.93
2016-07-04T07:29:16.352Z,39.98
2016-07-04T07:30:15.100Z,40.31
2016-07-04T07:31:16.352Z,40.42
2016-07-04T07:32:15.727Z,40.52
2016-07-04T07:33:16.352Z,40.67
2016-07-04T07:34:16.367Z,40.64
2016-07-04T07:35:15.731Z,40.4
2016-07-04T07:36:16.352Z,39.94
2016-07-04T07:37:16.354Z,39.64
2016-07-04T07:38:16.363Z,39.22
2016-07-04T07:39:15.737Z,39.17
2016-07-04T07:40:16.366Z,39.29
2016-07-04T07:41:16.366Z,39.46
2016-07-04T07:42:16.364Z,39.57
2016-07-04T07:43:15.741Z,39.8
2016-07-04T07:44:16.375Z,39.88
2016-07-04T07:45:16.378Z,39.98
2016-07-04T07:46:15.742Z,40.04
2016-07-04T07:47:16.373Z,40.01
2016-07-04T07:48:16.377Z,40.04
2016-07-04T07:49:15.754Z,40.22
2016-07-04T07:50:16.444Z,40.12
2016-07-04T07:51:15.754Z,39.98
2016-07-04T07:52:16.386Z,40.04
2016-07-04T07:53:15.871Z,40.2
2016-07-04T07:54:16.390Z,40.51
2016-07-04T07:55:15.790Z,40.61
2016-07-04T07:56:16.386Z,40.64
2016-07-04T07:57:16.390Z,40.61
2016-07-04T07:58:15.770Z,40.59
2016-07-04T07:59:15.780Z,40.74
2016-07-04T08:00:16.402Z,40.8
2016-07-04T08:01:15.774Z,40.76
2016-07-04T08:02:16.396Z,40.69
2016-07-04T08:03:16.396Z,40.58
2016-07-04T08:04:16.402Z,40.64
2016-07-04T08:05:15.781Z,40.69
2016-07-04T08:06:16.412Z,40.71
2016-07-04T08:07:15.782Z,40.76
2016-07-04T08:08:16.412Z,40.74
2016-07-04T08:09:16.415Z,40.74
2016-07-04T08:10:16.419Z,40.76
2016-07-04T08:11:16.415Z,40.62
2016-07-04T08:12:16.423Z,40.35
2016-07-04T08:13:16.422Z,40.42
2016-07-04T08:14:16.434Z,40.44
2016-07-04T08:15:16.422Z,40.67
2016-07-04T08:16:15.798Z,40.69
2016-07-04T08:17:15.802Z,40.78
2016-07-04T08:18:15.802Z,40.71
2016-07-04T08:19:15.802Z,40.57
2016-07-04T08:20:16.431Z,40.61
2016-07-04T08:21:15.805Z,40.42
2016-07-04T08:22:15.179Z,40.29
2016-07-04T08:23:16.421Z,40.29
2016-07-04T08:24:15.212Z,40.36
2016-07-04T08:25:15.806Z,40.35
2016-07-04T08:26:16.488Z,40.23
2016-07-04T08:27:16.442Z,40.28
2016-07-04T08:28:15.817Z,40.26
2016-07-04T08:29:16.457Z,40.28
2016-07-04T08:30:15.819Z,40.23
2016-07-04T08:31:15.821Z,40.08
2016-07-04T08:32:15.842Z,40.02
2016-07-04T08:33:15.821Z,40.05
2016-07-04T08:34:15.833Z,40.01
2016-07-04T08:35:16.453Z,39.89
2016-07-04T08:36:16.470Z,39.97
2016-07-04T08:37:15.828Z,39.95
2016-07-04T08:38:15.837Z,40.04
2016-07-04T08:39:15.213Z,40.19
2016-07-04T08:40:15.846Z,40.17
2016-07-04T08:41:16.481Z,40.28
2016-07-04T08:42:15.217Z,40.24
2016-07-04T08:43:16.461Z,40.29
2016-07-04T08:44:16.470Z,40.13
2016-07-04T08:46:07.904Z,39.98
2016-07-04T08:46:51.060Z,40.04
2016-07-04T08:48:20.443Z,40.01
2016-07-04T08:48:51.685Z,40.13
2016-07-04T08:49:52.307Z,39.97
2016-07-04T08:50:52.428Z,39.86
2016-07-04T08:51:51.691Z,39.85
2016-07-04T08:53:23.834Z,39.57
2016-07-04T08:53:52.048Z,39.63
2016-07-04T08:55:00.594Z,39.59
2016-07-04T08:55:51.316Z,39.51
2016-07-04T08:57:17.213Z,39.34
2016-07-04T08:57:51.704Z,39.2
2016-07-04T08:58:56.347Z,39.05
2016-07-04T08:59:51.707Z,38.91
2016-07-04T09:26:03.834Z,36.81
2016-07-04T09:27:03.847Z,36.8
2016-07-04T09:28:03.846Z,36.78
2016-07-04T09:29:03.849Z,36.92
2016-07-04T09:30:03.853Z,36.96
2016-07-04T09:31:03.848Z,37
2016-07-04T09:32:03.863Z,36.89
2016-07-04T09:33:03.856Z,36.84
2016-07-04T09:34:03.856Z,36.62
2016-07-04T09:35:03.862Z,36.33
2016-07-04T09:36:03.865Z,36.03
2016-07-04T09:37:03.858Z,35.61
2016-07-04T09:38:03.860Z,35.44
2016-07-04T09:39:03.860Z,35.44
2016-07-04T09:40:03.245Z,35.52
2016-07-04T09:41:03.883Z,35.47
2016-07-04T09:42:03.884Z,35.47
2016-07-04T09:43:03.895Z,35.31
2016-07-04T09:44:03.283Z,35.12
2016-07-04T09:45:03.249Z,34.93
2016-07-04T09:46:03.873Z,34.58
2016-07-04T09:47:03.259Z,34.37
2016-07-04T09:48:03.881Z,34.03
2016-07-04T09:49:03.252Z,33.79
2016-07-04T09:50:03.895Z,33.38
2016-07-04T09:51:03.897Z,32.97
2016-07-04T09:52:03.889Z,32.72
2016-07-04T09:53:03.910Z,32.37
2016-07-04T09:54:03.900Z,31.97
2016-07-04T09:55:03.283Z,31.66
2016-07-04T09:56:03.930Z,31.39
2016-07-04T09:57:03.921Z,31.1
2016-07-04T09:58:03.922Z,30.85
2016-07-04T09:59:03.918Z,30.54
2016-07-04T10:00:03.923Z,30.29
2016-07-04T10:01:03.299Z,30.14
2016-07-04T10:02:03.928Z,29.74
2016-07-04T10:03:03.338Z,29.42
2016-07-04T10:04:03.936Z,29.39
2016-07-04T10:05:03.319Z,29.32
2016-07-04T10:06:02.700Z,29.2
2016-07-04T10:07:03.937Z,29.15
2016-07-04T10:08:03.354Z,29.05
2016-07-04T10:09:03.941Z,28.92
2016-07-04T10:10:02.684Z,28.82
2016-07-04T10:11:03.332Z,28.71
2016-07-04T10:12:03.958Z,28.6
2016-07-04T10:13:02.702Z,28.59
2016-07-04T10:14:03.951Z,28.47
2016-07-04T10:15:03.954Z,28.45
2016-07-04T10:16:03.326Z,28.31
2016-07-04T10:17:03.326Z,28.2
2016-07-04T10:18:03.958Z,28.13
2016-07-04T10:19:04.060Z,28.03
2016-07-04T10:20:03.968Z,27.93
2016-07-04T10:21:03.966Z,27.93
2016-07-04T10:22:03.964Z,27.83
2016-07-04T10:23:03.970Z,27.83
2016-07-04T10:24:03.968Z,27.67
2016-07-04T10:25:03.974Z,27.66
2016-07-04T10:26:03.362Z,27.52
2016-07-04T10:27:03.980Z,27.43
2016-07-04T10:28:03.356Z,27.52
2016-07-04T10:29:03.984Z,27.33
2016-07-04T10:30:03.992Z,27.29
2016-07-04T10:31:03.982Z,27.23
2016-07-04T10:32:03.994Z,27.15
2016-07-04T10:33:03.998Z,27.07
2016-07-04T10:34:04.000Z,27.08
2016-07-04T10:35:04.002Z,27.01
2016-07-04T10:36:03.999Z,27
2016-07-04T10:37:04.006Z,27.04
2016-07-04T10:38:04.004Z,26.96
2016-07-04T10:39:04.025Z,27.01
2016-07-04T10:40:04.015Z,27
2016-07-04T10:41:04.019Z,26.96
2016-07-04T10:42:04.017Z,26.86
2016-07-04T10:43:04.019Z,26.88
2016-07-04T10:44:04.023Z,26.74
2016-07-04T10:45:03.405Z,26.83
2016-07-04T10:46:04.027Z,26.76
2016-07-04T10:47:04.044Z,26.7
2016-07-04T10:48:04.038Z,26.64
2016-07-04T10:49:04.043Z,26.66
2016-07-04T10:50:04.037Z,26.7
2016-07-04T10:51:04.045Z,26.67
2016-07-04T10:52:04.041Z,26.64
2016-07-04T10:53:04.053Z,26.73
2016-07-04T10:54:04.045Z,26.71
2016-07-04T10:55:04.061Z,26.6
2016-07-04T10:56:04.052Z,26.55
2016-07-04T10:57:03.430Z,26.52
2016-07-04T10:58:04.062Z,26.44
2016-07-04T10:59:04.150Z,26.45
2016-07-04T11:00:04.063Z,26.59
2016-07-04T11:01:04.066Z,26.52
2016-07-04T11:02:04.073Z,26.6
2016-07-04T11:03:04.069Z,26.53
2016-07-04T11:04:04.074Z,26.56
2016-07-04T11:05:03.440Z,26.56
2016-07-04T11:06:04.077Z,26.6
2016-07-04T11:07:04.077Z,26.63
2016-07-04T11:08:04.075Z,26.55
2016-07-04T11:09:04.079Z,26.55
2016-07-04T11:10:04.085Z,26.49
2016-07-04T11:11:03.450Z,26.36
2016-07-04T11:12:04.102Z,26.29
2016-07-04T11:13:04.086Z,26.36
2016-07-04T11:14:04.091Z,26.42
2016-07-04T11:15:04.098Z,26.36
2016-07-04T11:16:04.100Z,26.27
2016-07-04T11:17:03.477Z,26.23
2016-07-04T11:18:03.482Z,26.24
2016-07-04T11:19:04.104Z,26.24
2016-07-04T11:20:03.489Z,26.3
2016-07-04T11:21:04.109Z,26.23
2016-07-04T11:22:04.106Z,26.27
2016-07-04T11:23:03.482Z,26.27
2016-07-04T11:24:04.114Z,26.37
2016-07-04T11:25:03.484Z,26.33
2016-07-04T11:26:04.119Z,26.36
2016-07-04T11:27:04.116Z,26.37
2016-07-04T11:28:04.117Z,26.37
2016-07-04T11:29:04.137Z,26.41
2016-07-04T11:30:03.498Z,26.45
2016-07-04T11:31:03.506Z,26.51
2016-07-04T11:32:03.515Z,26.56
2016-07-04T11:33:04.139Z,26.55
2016-07-04T11:34:03.506Z,26.56
2016-07-04T11:35:03.514Z,26.59
2016-07-04T11:36:04.143Z,26.52
2016-07-04T11:37:02.894Z,26.59
2016-07-04T11:38:04.142Z,26.56
2016-07-04T11:39:04.150Z,26.63
2016-07-04T11:40:03.522Z,26.59
2016-07-04T11:41:04.159Z,26.61
2016-07-04T11:42:03.530Z,26.67
2016-07-04T11:43:04.162Z,26.71
2016-07-04T11:44:04.168Z,26.81
2016-07-04T11:45:04.155Z,26.73
2016-07-04T11:46:03.538Z,26.71
2016-07-04T11:47:04.170Z,26.78
2016-07-04T11:48:04.174Z,26.81
2016-07-04T11:49:04.175Z,26.88
2016-07-04T11:50:04.167Z,26.86
2016-07-04T11:51:04.172Z,26.91
2016-07-04T11:52:03.547Z,26.98
2016-07-04T11:53:04.183Z,26.88
2016-07-04T11:54:04.187Z,26.86
2016-07-04T11:55:03.559Z,26.79
2016-07-04T11:56:04.180Z,26.71
2016-07-04T11:57:04.179Z,26.7
2016-07-04T11:58:04.183Z,26.73
2016-07-04T11:59:04.205Z,26.71
2016-07-04T12:00:04.193Z,26.74
2016-07-04T12:01:04.196Z,26.67
2016-07-04T12:02:04.203Z,26.66
2016-07-04T12:03:03.579Z,26.64
2016-07-04T12:04:04.207Z,26.68
2016-07-04T12:05:04.203Z,26.67
2016-07-04T12:06:04.216Z,26.68
2016-07-04T12:07:04.211Z,26.68
2016-07-04T12:08:04.211Z,26.73
2016-07-04T12:09:04.218Z,26.7
2016-07-04T12:10:04.223Z,26.7
2016-07-04T12:11:04.219Z,26.68
2016-07-04T12:12:04.235Z,26.66
2016-07-04T12:13:03.603Z,26.82
2016-07-04T12:14:04.241Z,26.67
2016-07-04T12:15:04.235Z,26.81
2016-07-04T12:16:04.236Z,26.66
2016-07-04T12:17:04.236Z,26.81
2016-07-04T12:18:03.612Z,26.85
2016-07-04T12:19:03.755Z,26.82
2016-07-04T12:20:03.612Z,26.83
2016-07-04T12:21:03.615Z,26.92
2016-07-04T12:22:04.252Z,26.85
2016-07-04T12:23:04.248Z,26.91
2016-07-04T12:24:03.625Z,26.85
2016-07-04T12:25:04.252Z,26.88
2016-07-04T12:26:04.265Z,26.86
2016-07-04T12:27:03.637Z,26.86
2016-07-04T12:28:04.266Z,26.88
2016-07-04T12:29:03.638Z,26.82
2016-07-04T12:30:04.277Z,26.85
2016-07-04T12:31:04.266Z,26.82
2016-07-04T12:32:04.274Z,26.88
2016-07-04T12:33:04.278Z,26.89
2016-07-04T12:34:03.665Z,26.88
2016-07-04T12:35:04.290Z,26.88
2016-07-04T12:36:04.282Z,26.88
2016-07-04T12:37:04.282Z,26.88
2016-07-04T12:38:04.287Z,27.01
2016-07-04T12:39:04.287Z,27.03
2016-07-04T12:40:04.291Z,27.05
2016-07-04T12:41:04.292Z,27.04
2016-07-04T12:42:04.295Z,27.07
2016-07-04T12:43:04.298Z,26.98
2016-07-04T12:44:04.303Z,26.92
2016-07-04T12:45:03.674Z,26.92
2016-07-04T12:46:04.307Z,26.82
2016-07-04T12:47:04.311Z,26.88
2016-07-04T12:48:04.311Z,26.89
2016-07-04T12:49:03.688Z,26.83
2016-07-04T12:50:04.319Z,26.83
2016-07-04T12:51:04.319Z,26.71
2016-07-04T12:52:04.326Z,26.76
2016-07-04T12:53:03.699Z,26.74
2016-07-04T12:54:04.323Z,26.74
2016-07-04T12:55:04.327Z,26.68
2016-07-04T12:56:04.326Z,26.71
2016-07-04T12:57:04.330Z,26.83
2016-07-04T12:58:04.330Z,26.88
2016-07-04T12:59:03.718Z,26.89
2016-07-04T13:00:04.338Z,26.92
2016-07-04T13:01:04.342Z,27
2016-07-04T13:02:04.338Z,26.93
2016-07-04T13:03:04.342Z,26.91
2016-07-04T13:04:03.093Z,26.85
2016-07-04T13:05:04.341Z,26.86
2016-07-04T13:06:04.349Z,26.82
2016-07-04T13:07:04.357Z,26.92
2016-07-04T13:08:04.357Z,26.83
2016-07-04T13:09:03.730Z,26.7
2016-07-04T13:10:03.107Z,26.74
2016-07-04T13:11:04.361Z,26.66
2016-07-04T13:12:04.361Z,26.59
2016-07-04T13:13:03.743Z,26.64
2016-07-04T13:14:03.742Z,26.55
2016-07-04T13:15:04.365Z,26.51
2016-07-04T13:16:04.374Z,26.48
2016-07-04T13:17:03.745Z,26.42
2016-07-04T13:18:04.374Z,26.41
2016-07-04T13:19:03.746Z,26.34
2016-07-04T13:20:04.382Z,26.49